createdAt,value
2018-07-08T15:20:56.353Z,10.27
2018-07-08T15:23:24.538Z,12.23
2018-07-08T15:25:52.780Z,10.83
2018-07-08T15:28:21.009Z,11.03
2018-07-08T15:30:49.243Z,8.80
2018-07-08T15:33:17.464Z,11.47
2018-07-08T15:35:45.704Z,15.37
2018-07-08T15:38:13.928Z,11.73
2018-07-08T15:40:42.209Z,22.97
2018-07-08T15:43:10.549Z,24.50
2018-07-08T15:45:38.816Z,12.33
2018-07-08T15:48:07.056Z,8.03
2018-07-08T15:50:35.333Z,13.40
2018-07-08T15:53:03.588Z,12.20
2018-07-08T15:55:31.825Z,9.30
2018-07-08T15:58:00.064Z,10.57
2018-07-08T16:00:28.285Z,8.53
2018-07-08T16:02:56.538Z,10.67
2018-07-08T16:05:24.748Z,8.10
2018-07-08T16:07:52.989Z,15.30
2018-07-08T16:10:21.236Z,13.33
2018-07-08T16:12:49.476Z,8.37
2018-07-08T16:15:17.689Z,10.23
2018-07-08T16:17:45.924Z,9.97
2018-07-08T16:20:14.141Z,11.27
2018-07-08T16:22:42.389Z,10.87
2018-07-08T16:25:10.608Z,8.37
2018-07-08T16:27:38.836Z,12.07
2018-07-08T16:30:07.068Z,10.70
2018-07-08T16:32:35.524Z,8.20
2018-07-08T16:35:03.745Z,7.23
2018-07-08T16:37:32.012Z,7.87
2018-07-08T16:40:00.240Z,26.70
2018-07-08T16:42:28.488Z,9.33
2018-07-08T16:44:56.707Z,14.23
2018-07-08T16:47:24.936Z,12.87
2018-07-08T16:49:53.154Z,12.47
2018-07-08T16:52:21.405Z,17.70
2018-07-08T16:54:49.641Z,26.03
2018-07-08T16:57:17.884Z,10.23
2018-07-08T16:59:46.320Z,13.50
2018-07-08T17:02:14.664Z,10.50
2018-07-08T17:04:42.893Z,10.10
2018-07-08T17:07:10.891Z,14.97
2018-07-08T17:09:39.136Z,14.57
2018-07-08T17:12:07.604Z,30.37
2018-07-08T17:14:35.828Z,11.00
2018-07-08T17:17:04.072Z,13.50
2018-07-08T17:19:32.284Z,13.87
2018-07-08T17:22:00.524Z,16.20
2018-07-08T17:24:28.816Z,8.67
2018-07-08T17:26:57.065Z,13.57
2018-07-08T17:29:25.069Z,12.83
2018-07-08T17:31:54.016Z,14.47
2018-07-08T17:34:22.028Z,28.77
2018-07-08T17:36:50.288Z,11.07
2018-07-08T17:39:18.504Z,15.30
2018-07-08T17:41:46.772Z,10.37
2018-07-08T17:44:15.004Z,21.80
2018-07-08T17:46:43.235Z,15.23
2018-07-08T17:49:11.484Z,11.20
2018-07-08T17:51:39.692Z,8.07
2018-07-08T17:54:07.932Z,8.83
2018-07-08T17:56:36.448Z,6.73
2018-07-08T17:59:04.692Z,6.80
2018-07-08T18:01:32.979Z,7.87
2018-07-08T18:04:01.221Z,8.80
2018-07-08T18:06:29.440Z,8.47
2018-07-08T18:08:57.756Z,7.37
2018-07-08T18:11:25.952Z,51.43
2018-07-08T18:13:54.196Z,33.07
2018-07-08T18:16:22.864Z,13.23
2018-07-08T18:18:51.107Z,51.73
2018-07-08T18:21:19.362Z,31.47
2018-07-08T18:23:47.849Z,34.57
2018-07-08T18:26:16.064Z,49.87
2018-07-08T18:28:44.304Z,34.17
2018-07-08T18:31:12.528Z,17.80
2018-07-08T18:33:41.165Z,16.00
2018-07-08T18:36:09.380Z,19.77
2018-07-08T18:38:37.628Z,20.10
2018-07-08T18:41:06.047Z,13.37
2018-07-08T18:43:34.279Z,13.73
2018-07-08T18:46:02.504Z,14.03
2018-07-08T18:48:30.747Z,11.93
2018-07-08T18:50:58.953Z,8.67
2018-07-08T18:53:27.491Z,7.67
2018-07-08T18:55:55.683Z,10.93
2018-07-08T18:58:23.917Z,12.50
2018-07-08T19:00:52.349Z,11.07
2018-07-08T19:03:20.608Z,11.77
2018-07-08T19:05:48.852Z,9.47
2018-07-08T19:08:17.104Z,8.37
2018-07-08T19:10:45.548Z,9.50
2018-07-08T19:13:13.775Z,8.43
2018-07-08T19:15:41.987Z,14.73
2018-07-08T19:18:10.216Z,9.40
2018-07-08T19:20:38.436Z,8.07
2018-07-08T19:23:06.706Z,11.23
2018-07-08T19:25:34.921Z,15.77
2018-07-08T19:28:03.151Z,8.53
2018-07-08T19:30:31.384Z,11.87
2018-07-08T19:32:59.908Z,7.43
2018-07-08T19:35:28.150Z,11.53
2018-07-08T19:37:56.375Z,11.00
2018-07-08T19:40:24.788Z,11.43
2018-07-08T19:42:52.968Z,12.07
2018-07-08T19:45:21.200Z,7.97
2018-07-08T19:47:49.416Z,15.93
2018-07-08T19:50:17.644Z,10.47
2018-07-08T19:52:45.869Z,51.03
2018-07-08T19:55:14.108Z,70.50
2018-07-08T19:57:42.319Z,66.33
2018-07-08T20:00:10.560Z,41.57
2018-07-08T20:02:38.771Z,26.73
2018-07-08T20:05:07.009Z,12.03
2018-07-08T20:07:35.237Z,11.40
2018-07-08T20:10:03.492Z,9.93
2018-07-08T20:12:31.716Z,10.73
2018-07-08T20:14:59.953Z,11.23
2018-07-08T20:17:28.177Z,14.30
2018-07-08T20:19:56.451Z,7.97
2018-07-08T20:22:24.673Z,11.33
2018-07-08T20:24:52.940Z,16.13
2018-07-08T20:27:21.324Z,9.50
2018-07-08T20:29:49.700Z,9.60
2018-07-08T20:32:17.961Z,9.23
2018-07-08T20:34:46.157Z,6.37
2018-07-08T20:37:14.378Z,11.07
2018-07-08T20:39:42.608Z,12.17
2018-07-08T20:42:10.821Z,12.97
2018-07-08T20:44:39.052Z,6.30
2018-07-08T20:47:07.280Z,7.83
2018-07-08T20:49:35.547Z,10.53
2018-07-08T20:52:03.785Z,8.17
2018-07-08T20:54:32.388Z,8.40
2018-07-08T20:57:00.604Z,9.73
2018-07-08T20:59:28.839Z,9.80
2018-07-08T21:01:57.060Z,26.30
2018-07-08T21:04:25.321Z,9.53
2018-07-08T21:06:53.639Z,9.63
2018-07-08T21:09:21.887Z,8.10
